To NAV CANADA Home Page Login to a new session Search on AWWS site Disclaimer Vers la page française équivalente Tips FAQ What's new on the site To the Forecasts and Observations / NOTAM section To "File a Flight Plan" website Publications and other links Update of the User's profile FIC Telephone Numbers My Weather Data Folder Route Weather Data Regional Weather Data Local Weather Data To the Forecasts and Observations / NOTAM section
Request Generated 04/25/2019 at 09:22:20 UTC . Weather information available at that time is displayed.

METAR/TAF

WILLIAMS LAKE/BC    

METAR CYWL 250900Z 32007KT 15SM SKC 00/M12 A3027 RMK SLP282=
METAR CYWL 250800Z 32005KT 15SM SKC M01/M10 A3027 RMK SLP285=
METAR CYWL 250700Z 33004KT 15SM SKC M00/M11 A3026 RMK SLP283=

TAF CYWL 250638Z 2507/2519 VRB03KT P6SM FEW080
RMK NXT FCST BY 251300Z=
Your time UTC time
Weather data provided by Environment Canada and NAV CANADA